createdAt,value
2017-07-19T00:00:03.620Z,1014.35
2017-07-19T00:01:12.587Z,1014.35
2017-07-19T00:02:21.543Z,1014.3
2017-07-19T00:03:30.845Z,1014.35
2017-07-19T00:04:39.809Z,1014.33
2017-07-19T00:05:49.085Z,1014.31
2017-07-19T00:06:58.057Z,1014.34
2017-07-19T00:08:07.011Z,1014.31
2017-07-19T00:09:15.975Z,1014.3
2017-07-19T00:10:24.954Z,1014.33
2017-07-19T00:11:33.923Z,1014.26
2017-07-19T00:12:42.897Z,1014.32
2017-07-19T00:13:51.849Z,1014.33
2017-07-19T00:15:00.840Z,1014.3
2017-07-19T00:16:09.805Z,1014.33
2017-07-19T00:17:18.800Z,1014.34
2017-07-19T00:18:27.768Z,1014.28
2017-07-19T00:19:36.756Z,1014.32
2017-07-19T00:20:45.713Z,1014.34
2017-07-19T00:21:54.685Z,1014.28
2017-07-19T00:23:03.637Z,1014.28
2017-07-19T00:24:12.598Z,1014.3
2017-07-19T00:25:21.566Z,1014.31
2017-07-19T00:26:32.089Z,1014.29
2017-07-19T00:27:43.925Z,1014.27
2017-07-19T00:28:55.838Z,1014.28
2017-07-19T00:30:06.434Z,1014.21
2017-07-19T00:31:16.531Z,1014.26
2017-07-19T00:32:26.840Z,1014.21
2017-07-19T00:33:36.670Z,1014.19
2017-07-19T00:34:45.645Z,1014.23
2017-07-19T00:35:54.797Z,1014.17
2017-07-19T00:37:03.851Z,1014.17
2017-07-19T00:38:12.885Z,1014.17
2017-07-19T00:39:21.910Z,1014.16
2017-07-19T00:40:30.870Z,1014.17
2017-07-19T00:41:39.850Z,1014.14
2017-07-19T00:42:48.826Z,1014.09
2017-07-19T00:43:57.782Z,1014.07
2017-07-19T00:45:06.739Z,1014.04
2017-07-19T00:46:15.702Z,1014.05
2017-07-19T00:47:24.994Z,1014.06
2017-07-19T00:48:34.055Z,1014.09
2017-07-19T00:49:43.299Z,1014.1
2017-07-19T00:50:52.498Z,1014.11
2017-07-19T00:52:01.512Z,1014.06
2017-07-19T00:53:10.655Z,1014.07
2017-07-19T00:54:19.866Z,1014.06
2017-07-19T00:55:28.833Z,1014.08
2017-07-19T00:56:38.116Z,1014.05
2017-07-19T00:57:47.077Z,1014.03
2017-07-19T00:58:56.039Z,1013.97
2017-07-19T01:00:05.111Z,1014.04
2017-07-19T01:01:14.327Z,1014.05
2017-07-19T01:02:23.380Z,1014.03
2017-07-19T01:03:32.476Z,1013.97
2017-07-19T01:04:41.604Z,1013.99
2017-07-19T01:05:50.700Z,1014
2017-07-19T01:06:59.667Z,1014.02
2017-07-19T01:08:08.819Z,1013.98
2017-07-19T01:09:17.896Z,1013.98
2017-07-19T01:10:26.859Z,1013.95
2017-07-19T01:11:35.872Z,1013.96
2017-07-19T01:12:44.885Z,1013.92
2017-07-19T01:13:54.611Z,1013.94
2017-07-19T01:15:03.652Z,1013.9
2017-07-19T01:16:13.023Z,1013.94
2017-07-19T01:17:22.323Z,1013.87
2017-07-19T01:18:31.571Z,1013.87
2017-07-19T01:19:41.282Z,1013.85
2017-07-19T01:20:50.358Z,1013.85
2017-07-19T01:21:59.394Z,1013.84
2017-07-19T01:23:08.434Z,1013.84
2017-07-19T01:24:17.394Z,1013.82
2017-07-19T01:25:27.085Z,1013.78
2017-07-19T01:26:36.246Z,1013.78
2017-07-19T01:27:45.434Z,1013.74
2017-07-19T01:28:54.580Z,1013.7
2017-07-19T01:30:04.050Z,1013.66
2017-07-19T01:31:13.103Z,1013.65
2017-07-19T01:32:22.208Z,1013.61
2017-07-19T01:33:31.321Z,1013.6
2017-07-19T01:34:40.541Z,1013.61
2017-07-19T01:35:49.870Z,1013.64
2017-07-19T01:36:58.946Z,1013.63
2017-07-19T01:38:07.977Z,1013.63
2017-07-19T01:39:16.940Z,1013.63
2017-07-19T01:40:25.905Z,1013.61
2017-07-19T01:41:34.884Z,1013.6
2017-07-19T01:42:43.856Z,1013.6
2017-07-19T01:43:52.816Z,1013.56
2017-07-19T01:45:02.101Z,1013.56
2017-07-19T01:46:11.073Z,1013.53
2017-07-19T01:47:20.047Z,1013.5
2017-07-19T01:48:29.011Z,1013.51
2017-07-19T01:49:38.301Z,1013.46
2017-07-19T01:50:47.589Z,1013.47
2017-07-19T01:51:56.554Z,1013.44
2017-07-19T01:53:05.518Z,1013.45
2017-07-19T01:54:14.488Z,1013.43
2017-07-19T01:55:23.451Z,1013.41
2017-07-19T01:56:32.405Z,1013.42
2017-07-19T01:57:41.354Z,1013.39
2017-07-19T01:58:50.323Z,1013.36
2017-07-19T01:59:59.276Z,1013.36
2017-07-19T02:01:08.562Z,1013.35
2017-07-19T02:02:17.845Z,1013.38
2017-07-19T02:03:27.139Z,1013.32
2017-07-19T02:04:36.104Z,1013.32
2017-07-19T02:05:45.065Z,1013.34
2017-07-19T02:06:54.024Z,1013.33
2017-07-19T02:08:03.321Z,1013.36
2017-07-19T02:09:12.288Z,1013.38
2017-07-19T02:10:21.249Z,1013.42
2017-07-19T02:11:30.217Z,1013.38
2017-07-19T02:12:39.503Z,1013.41
2017-07-19T02:13:48.461Z,1013.43
2017-07-19T02:14:57.455Z,1013.39
2017-07-19T02:16:06.412Z,1013.36
2017-07-19T02:17:15.406Z,1013.37
2017-07-19T02:18:24.368Z,1013.34
2017-07-19T02:19:33.320Z,1013.34
2017-07-19T02:20:42.283Z,1013.36
2017-07-19T02:21:51.236Z,1013.33
2017-07-19T02:23:00.198Z,1013.32
2017-07-19T02:24:09.158Z,1013.3
2017-07-19T02:25:18.113Z,1013.29
2017-07-19T02:26:27.069Z,1013.29
2017-07-19T02:27:36.359Z,1013.29
2017-07-19T02:28:45.323Z,1013.3
2017-07-19T02:29:54.289Z,1013.34
2017-07-19T02:31:03.242Z,1013.32
2017-07-19T02:32:12.203Z,1013.33
2017-07-19T02:33:21.163Z,1013.34
2017-07-19T02:34:30.123Z,1013.36
2017-07-19T02:35:39.411Z,1013.4
2017-07-19T02:36:48.379Z,1013.38
2017-07-19T02:37:57.354Z,1013.38
2017-07-19T02:39:06.321Z,1013.35
2017-07-19T02:40:15.285Z,1013.4
2017-07-19T02:41:24.252Z,1013.38
2017-07-19T02:42:33.216Z,1013.39
2017-07-19T02:43:42.180Z,1013.36
2017-07-19T02:44:51.139Z,1013.39
2017-07-19T02:46:00.097Z,1013.38
2017-07-19T02:47:09.075Z,1013.33
2017-07-19T02:48:18.042Z,1013.35
2017-07-19T02:49:27.001Z,1013.33
2017-07-19T02:50:35.957Z,1013.36
2017-07-19T02:51:45.242Z,1013.39
2017-07-19T02:52:54.206Z,1013.36
2017-07-19T02:54:03.173Z,1013.32
2017-07-19T02:55:12.131Z,1013.33
2017-07-19T02:56:21.098Z,1013.31
2017-07-19T02:57:30.053Z,1013.31
2017-07-19T02:58:39.011Z,1013.29
2017-07-19T02:59:47.975Z,1013.28
2017-07-19T03:00:56.936Z,1013.29
2017-07-19T03:02:05.902Z,1013.28
2017-07-19T03:03:14.867Z,1013.29
2017-07-19T03:04:23.822Z,1013.32
2017-07-19T03:05:32.769Z,1013.28
2017-07-19T03:06:41.725Z,1013.28
2017-07-19T03:07:50.680Z,1013.26
2017-07-19T03:08:59.652Z,1013.19
2017-07-19T03:10:08.617Z,1013.26
2017-07-19T03:11:17.570Z,1013.22
2017-07-19T03:12:26.527Z,1013.24
2017-07-19T03:13:35.491Z,1013.24
2017-07-19T03:14:44.446Z,1013.24
2017-07-19T03:15:53.400Z,1013.22
2017-07-19T03:17:02.368Z,1013.24
2017-07-19T03:18:11.330Z,1013.24
2017-07-19T03:19:20.287Z,1013.23
2017-07-19T03:20:29.562Z,1013.27
2017-07-19T03:21:38.522Z,1013.25
2017-07-19T03:22:47.488Z,1013.24
2017-07-19T03:23:56.449Z,1013.28
2017-07-19T03:25:05.425Z,1013.27
2017-07-19T03:26:14.733Z,1013.32
2017-07-19T03:27:24.096Z,1013.28
2017-07-19T03:28:33.057Z,1013.27
2017-07-19T03:29:42.003Z,1013.31
2017-07-19T03:30:50.955Z,1013.28
2017-07-19T03:31:59.907Z,1013.3
2017-07-19T03:33:08.872Z,1013.3
2017-07-19T03:34:17.824Z,1013.33
2017-07-19T03:35:26.790Z,1013.33
2017-07-19T03:36:35.757Z,1013.31
2017-07-19T03:37:44.715Z,1013.33
2017-07-19T03:38:53.671Z,1013.3
2017-07-19T03:40:02.634Z,1013.28
2017-07-19T03:41:11.594Z,1013.28
2017-07-19T03:42:20.881Z,1013.29
2017-07-19T03:43:29.844Z,1013.25
2017-07-19T03:44:39.122Z,1013.3
2017-07-19T03:45:48.737Z,1013.32
2017-07-19T03:46:57.696Z,1013.33
2017-07-19T03:48:06.986Z,1013.31
2017-07-19T03:49:15.957Z,1013.3
2017-07-19T03:50:24.923Z,1013.27
2017-07-19T03:51:33.880Z,1013.34
2017-07-19T03:52:42.840Z,1013.3
2017-07-19T03:53:51.807Z,1013.27
2017-07-19T03:55:00.774Z,1013.26
2017-07-19T03:56:10.064Z,1013.23
2017-07-19T03:57:19.020Z,1013.23
2017-07-19T03:58:28.308Z,1013.2
2017-07-19T03:59:37.268Z,1013.19
2017-07-19T04:00:46.562Z,1013.19
2017-07-19T04:01:55.516Z,1013.14
2017-07-19T04:03:04.492Z,1013.14
2017-07-19T04:04:13.451Z,1013.16
2017-07-19T04:05:22.415Z,1013.19
2017-07-19T04:06:31.378Z,1013.22
2017-07-19T04:07:40.334Z,1013.21
2017-07-19T04:08:49.294Z,1013.21
2017-07-19T04:09:58.253Z,1013.22
2017-07-19T04:11:07.211Z,1013.18
2017-07-19T04:12:16.169Z,1013.19
2017-07-19T04:13:25.130Z,1013.22
2017-07-19T04:14:34.101Z,1013.19
2017-07-19T04:15:43.070Z,1013.18
2017-07-19T04:16:52.357Z,1013.17
2017-07-19T04:18:01.324Z,1013.16
2017-07-19T04:19:10.287Z,1013.13
2017-07-19T04:20:19.239Z,1013.16
2017-07-19T04:21:28.206Z,1013.15
2017-07-19T04:22:37.486Z,1013.14
2017-07-19T04:23:46.444Z,1013.16
2017-07-19T04:24:55.410Z,1013.14
2017-07-19T04:26:04.378Z,1013.2
2017-07-19T04:27:13.680Z,1013.23
2017-07-19T04:28:22.642Z,1013.2
2017-07-19T04:29:31.610Z,1013.2
2017-07-19T04:30:40.573Z,1013.19
2017-07-19T04:31:49.527Z,1013.23
2017-07-19T04:32:58.483Z,1013.19
2017-07-19T04:34:07.779Z,1013.21
2017-07-19T04:35:16.743Z,1013.19
2017-07-19T04:36:25.705Z,1013.19
2017-07-19T04:37:34.665Z,1013.16
2017-07-19T04:38:43.631Z,1013.13
2017-07-19T04:39:52.606Z,1013.17
2017-07-19T04:41:02.223Z,1013.2
2017-07-19T04:42:11.176Z,1013.18
2017-07-19T04:43:20.137Z,1013.22
2017-07-19T04:44:29.092Z,1013.21
2017-07-19T04:45:38.052Z,1013.22
2017-07-19T04:46:47.008Z,1013.21
2017-07-19T04:47:55.955Z,1013.2
2017-07-19T04:49:04.914Z,1013.16
2017-07-19T04:50:13.867Z,1013.22
2017-07-19T04:51:22.831Z,1013.23
2017-07-19T04:52:31.793Z,1013.23
2017-07-19T04:53:40.750Z,1013.22
2017-07-19T04:54:49.719Z,1013.27
2017-07-19T04:55:58.678Z,1013.25
2017-07-19T04:57:07.641Z,1013.25
2017-07-19T04:58:16.604Z,1013.26
2017-07-19T04:59:25.563Z,1013.26
2017-07-19T05:00:34.930Z,1013.24
2017-07-19T05:01:43.886Z,1013.23
2017-07-19T05:02:52.851Z,1013.2
2017-07-19T05:04:01.810Z,1013.22
2017-07-19T05:05:10.766Z,1013.2
2017-07-19T05:06:20.047Z,1013.18
2017-07-19T05:07:29.004Z,1013.16
2017-07-19T05:08:37.962Z,1013.14
2017-07-19T05:09:46.908Z,1013.1
2017-07-19T05:10:55.867Z,1013.11
2017-07-19T05:12:04.823Z,1013.05
2017-07-19T05:13:13.776Z,1013.04
2017-07-19T05:14:22.740Z,1013.04
2017-07-19T05:15:31.700Z,1012.97
2017-07-19T05:16:40.990Z,1013.01
2017-07-19T05:17:49.989Z,1013.01
2017-07-19T05:18:59.370Z,1013.07
2017-07-19T05:20:08.535Z,1013.03
2017-07-19T05:21:17.578Z,1013
2017-07-19T05:22:26.654Z,1013.01
2017-07-19T05:23:36.146Z,1013.03
2017-07-19T05:24:45.392Z,1013
2017-07-19T05:25:54.537Z,1012.98
2017-07-19T05:27:03.909Z,1012.99
2017-07-19T05:28:12.944Z,1012.97
2017-07-19T05:29:22.018Z,1012.95
2017-07-19T05:30:31.074Z,1012.97
2017-07-19T05:31:40.033Z,1012.92
2017-07-19T05:32:49.238Z,1012.92
2017-07-19T05:33:58.461Z,1012.93
2017-07-19T05:35:07.575Z,1012.96
2017-07-19T05:36:16.892Z,1012.95
2017-07-19T05:37:25.869Z,1012.98
2017-07-19T05:38:35.024Z,1012.95
2017-07-19T05:39:44.021Z,1012.96
2017-07-19T05:40:53.057Z,1012.91
2017-07-19T05:42:02.187Z,1012.92
2017-07-19T05:43:11.655Z,1012.86
2017-07-19T05:44:20.757Z,1012.86
2017-07-19T05:45:29.779Z,1012.85
2017-07-19T05:46:39.068Z,1012.84
2017-07-19T05:47:48.024Z,1012.88
2017-07-19T05:48:57.309Z,1012.89
2017-07-19T05:50:06.268Z,1012.88
2017-07-19T05:51:15.225Z,1012.81
2017-07-19T05:52:24.181Z,1012.86
2017-07-19T05:53:33.143Z,1012.79
2017-07-19T05:54:42.099Z,1012.84
2017-07-19T05:55:51.071Z,1012.84
2017-07-19T05:57:00.041Z,1012.85
2017-07-19T05:58:09.326Z,1012.86
2017-07-19T05:59:18.283Z,1012.85
2017-07-19T06:00:27.236Z,1012.88
2017-07-19T06:01:36.198Z,1012.9
2017-07-19T06:02:45.169Z,1012.88
2017-07-19T06:03:54.151Z,1012.89
2017-07-19T06:05:03.121Z,1012.88
2017-07-19T06:06:12.433Z,1012.87
2017-07-19T06:07:21.390Z,1012.91
2017-07-19T06:08:30.351Z,1012.91
2017-07-19T06:09:39.308Z,1012.89
2017-07-19T06:10:48.607Z,1012.87
2017-07-19T06:11:57.569Z,1012.87
2017-07-19T06:13:06.530Z,1012.89
2017-07-19T06:14:15.489Z,1012.89
2017-07-19T06:15:24.449Z,1012.91
2017-07-19T06:16:33.442Z,1012.94
2017-07-19T06:17:42.728Z,1012.89
2017-07-19T06:18:51.689Z,1012.9
2017-07-19T06:20:00.662Z,1012.86
2017-07-19T06:21:09.623Z,1012.85
2017-07-19T06:22:18.577Z,1012.87
2017-07-19T06:23:27.535Z,1012.84
2017-07-19T06:24:36.868Z,1012.86
2017-07-19T06:25:45.827Z,1012.87
2017-07-19T06:26:54.794Z,1012.85
2017-07-19T06:28:03.755Z,1012.83
2017-07-19T06:29:12.721Z,1012.81
2017-07-19T06:30:21.676Z,1012.85
2017-07-19T06:31:30.649Z,1012.84
2017-07-19T06:32:39.618Z,1012.79
2017-07-19T06:33:48.898Z,1012.82
2017-07-19T06:34:57.859Z,1012.78
2017-07-19T06:36:07.546Z,1012.84
2017-07-19T06:37:16.509Z,1012.8
2017-07-19T06:38:25.463Z,1012.82
2017-07-19T06:39:34.421Z,1012.85
2017-07-19T06:40:43.385Z,1012.88
2017-07-19T06:41:52.352Z,1012.81
2017-07-19T06:43:01.307Z,1012.8
2017-07-19T06:44:10.272Z,1012.8
2017-07-19T06:45:19.228Z,1012.83
2017-07-19T06:46:28.192Z,1012.79
2017-07-19T06:47:37.146Z,1012.78
2017-07-19T06:48:46.116Z,1012.75
2017-07-19T06:49:55.091Z,1012.74
2017-07-19T06:51:04.057Z,1012.75
2017-07-19T06:52:13.022Z,1012.73
2017-07-19T06:53:21.976Z,1012.75
2017-07-19T06:54:30.938Z,1012.74
2017-07-19T06:55:39.904Z,1012.76
2017-07-19T06:56:48.876Z,1012.76
2017-07-19T06:57:57.845Z,1012.75
2017-07-19T06:59:06.806Z,1012.78
2017-07-19T07:00:16.099Z,1012.73
2017-07-19T07:01:25.065Z,1012.72
2017-07-19T07:02:34.030Z,1012.7
2017-07-19T07:03:42.989Z,1012.69
2017-07-19T07:04:52.272Z,1012.7
2017-07-19T07:06:01.241Z,1012.66
2017-07-19T07:07:10.541Z,1012.7
2017-07-19T07:08:19.507Z,1012.68
2017-07-19T07:09:28.463Z,1012.71
2017-07-19T07:10:37.417Z,1012.75
2017-07-19T07:11:46.368Z,1012.72
2017-07-19T07:12:55.319Z,1012.7
2017-07-19T07:14:04.277Z,1012.75
2017-07-19T07:15:13.230Z,1012.76
2017-07-19T07:16:22.187Z,1012.8
2017-07-19T07:17:31.141Z,1012.76
2017-07-19T07:18:40.099Z,1012.75
2017-07-19T07:19:49.063Z,1012.75
2017-07-19T07:20:58.018Z,1012.73
2017-07-19T07:22:06.979Z,1012.79
2017-07-19T07:23:16.283Z,1012.77
2017-07-19T07:24:25.250Z,1012.74
2017-07-19T07:25:34.218Z,1012.76
2017-07-19T07:26:43.173Z,1012.75
2017-07-19T07:27:52.137Z,1012.74
2017-07-19T07:29:01.102Z,1012.73
2017-07-19T07:30:10.065Z,1012.74
2017-07-19T07:31:19.031Z,1012.72
2017-07-19T07:32:27.993Z,1012.71
2017-07-19T07:33:37.278Z,1012.71
2017-07-19T07:34:46.241Z,1012.73
2017-07-19T07:35:55.203Z,1012.71
2017-07-19T07:37:04.170Z,1012.72
2017-07-19T07:38:13.133Z,1012.73
2017-07-19T07:39:22.100Z,1012.71
2017-07-19T07:40:31.386Z,1012.69
2017-07-19T07:41:40.665Z,1012.72
2017-07-19T07:42:49.617Z,1012.72
2017-07-19T07:43:58.574Z,1012.68
2017-07-19T07:45:07.532Z,1012.6
2017-07-19T07:46:16.488Z,1012.59
2017-07-19T07:47:25.459Z,1012.61
2017-07-19T07:48:34.758Z,1012.61
2017-07-19T07:49:44.035Z,1012.62
2017-07-19T07:50:53.000Z,1012.58
2017-07-19T07:52:02.295Z,1012.57
2017-07-19T07:53:11.252Z,1012.53
2017-07-19T07:54:20.220Z,1012.51
2017-07-19T07:55:29.857Z,1012.51
2017-07-19T07:56:38.810Z,1012.5
2017-07-19T07:57:47.776Z,1012.49
2017-07-19T07:58:56.744Z,1012.49
2017-07-19T08:00:05.702Z,1012.52
2017-07-19T08:01:14.735Z,1012.49
2017-07-19T08:02:23.740Z,1012.49
2017-07-19T08:03:32.750Z,1012.55
2017-07-19T08:04:41.714Z,1012.51
2017-07-19T08:05:50.680Z,1012.5
2017-07-19T08:06:59.640Z,1012.47
2017-07-19T08:08:08.924Z,1012.49
2017-07-19T08:09:17.903Z,1012.48
2017-07-19T08:10:26.864Z,1012.46
2017-07-19T08:11:35.821Z,1012.48
2017-07-19T08:12:45.122Z,1012.5
2017-07-19T08:13:54.085Z,1012.52
2017-07-19T08:15:03.041Z,1012.52
2017-07-19T08:16:12.347Z,1012.57
2017-07-19T08:17:21.332Z,1012.57
2017-07-19T08:18:30.304Z,1012.53
2017-07-19T08:19:39.278Z,1012.53
2017-07-19T08:20:48.245Z,1012.49
2017-07-19T08:21:57.212Z,1012.49
2017-07-19T08:23:06.202Z,1012.45
2017-07-19T08:24:15.165Z,1012.46
2017-07-19T08:25:24.128Z,1012.42
2017-07-19T08:26:33.099Z,1012.41
2017-07-19T08:27:42.069Z,1012.4
2017-07-19T08:28:51.030Z,1012.4
2017-07-19T08:29:59.993Z,1012.42
2017-07-19T08:31:08.962Z,1012.34
2017-07-19T08:32:17.938Z,1012.34
2017-07-19T08:33:27.222Z,1012.32
2017-07-19T08:34:36.187Z,1012.28
2017-07-19T08:35:45.157Z,1012.32
2017-07-19T08:36:54.118Z,1012.32
2017-07-19T08:38:03.082Z,1012.3
2017-07-19T08:39:12.069Z,1012.28
2017-07-19T08:40:21.038Z,1012.3
2017-07-19T08:41:30.328Z,1012.27
2017-07-19T08:42:39.292Z,1012.28
2017-07-19T08:43:48.251Z,1012.25
2017-07-19T08:44:57.215Z,1012.25
2017-07-19T08:46:06.193Z,1012.25
2017-07-19T08:47:15.207Z,1012.21
2017-07-19T08:48:25.480Z,1012.22
2017-07-19T08:49:35.128Z,1012.19
2017-07-19T08:50:44.131Z,1012.19
2017-07-19T08:51:53.121Z,1012.14
2017-07-19T08:53:02.111Z,1012.12
2017-07-19T08:54:11.105Z,1012.14
2017-07-19T08:55:20.089Z,1012.1
2017-07-19T08:56:29.107Z,1012.13
2017-07-19T08:57:38.090Z,1012.18
2017-07-19T08:58:47.083Z,1012.17
2017-07-19T08:59:56.068Z,1012.12
2017-07-19T09:01:05.056Z,1012.16
2017-07-19T09:02:14.049Z,1012.13
2017-07-19T09:03:23.027Z,1012.09
2017-07-19T09:04:32.037Z,1012.1
2017-07-19T09:05:41.018Z,1012.06
2017-07-19T09:06:50.014Z,1012.1
2017-07-19T09:07:59.341Z,1012.07
2017-07-19T09:09:08.980Z,1012.13
2017-07-19T09:10:17.966Z,1012.06
2017-07-19T09:11:26.953Z,1012.03
2017-07-19T09:12:36.289Z,1012.11
2017-07-19T09:13:45.283Z,1012.07
2017-07-19T09:14:54.287Z,1012.04
2017-07-19T09:16:03.285Z,1012.04
2017-07-19T09:17:12.278Z,1012
2017-07-19T09:18:21.276Z,1012.02
2017-07-19T09:19:30.261Z,1012.02
2017-07-19T09:20:39.265Z,1012.03
2017-07-19T09:21:48.260Z,1011.93
2017-07-19T09:22:57.266Z,1011.92
2017-07-19T09:24:06.270Z,1011.94
2017-07-19T09:25:15.260Z,1011.93
2017-07-19T09:26:24.248Z,1011.89
2017-07-19T09:27:33.235Z,1011.96
2017-07-19T09:28:42.229Z,1011.96
2017-07-19T09:29:51.203Z,1011.94
2017-07-19T09:31:00.216Z,1011.92
2017-07-19T09:32:09.203Z,1011.94
2017-07-19T09:33:18.224Z,1011.88
2017-07-19T09:34:27.217Z,1011.87
2017-07-19T09:35:36.241Z,1011.89
2017-07-19T09:36:45.229Z,1011.87
2017-07-19T09:37:54.233Z,1011.84
2017-07-19T09:39:03.220Z,1011.91
2017-07-19T09:40:12.218Z,1011.85
2017-07-19T09:41:21.200Z,1011.82
2017-07-19T09:42:30.181Z,1011.84
2017-07-19T09:43:39.160Z,1011.83
2017-07-19T09:44:48.129Z,1011.85
2017-07-19T09:45:57.132Z,1011.87
2017-07-19T09:47:06.416Z,1011.82
2017-07-19T09:48:15.380Z,1011.82
2017-07-19T09:49:24.346Z,1011.82
2017-07-19T09:50:33.324Z,1011.74
2017-07-19T09:51:42.291Z,1011.77
2017-07-19T09:52:51.263Z,1011.75
2017-07-19T09:54:00.228Z,1011.8
2017-07-19T09:55:09.195Z,1011.8
2017-07-19T09:56:18.182Z,1011.75
2017-07-19T09:57:27.162Z,1011.76
2017-07-19T09:58:36.129Z,1011.72
2017-07-19T09:59:45.083Z,1011.78
2017-07-19T10:00:54.050Z,1011.78
2017-07-19T10:02:03.335Z,1011.74
2017-07-19T10:03:12.301Z,1011.71
2017-07-19T10:04:21.275Z,1011.65
2017-07-19T10:05:30.240Z,1011.67
2017-07-19T10:06:39.210Z,1011.66
2017-07-19T10:07:48.508Z,1011.72
2017-07-19T10:08:57.475Z,1011.64
2017-07-19T10:10:06.435Z,1011.64
2017-07-19T10:11:15.405Z,1011.62
2017-07-19T10:12:24.369Z,1011.64
2017-07-19T10:13:33.345Z,1011.58
2017-07-19T10:14:42.339Z,1011.58
2017-07-19T10:15:51.302Z,1011.54
2017-07-19T10:17:00.585Z,1011.47
2017-07-19T10:18:09.552Z,1011.47
2017-07-19T10:19:18.839Z,1011.35
2017-07-19T10:20:27.815Z,1011.39
2017-07-19T10:21:36.780Z,1011.37
2017-07-19T10:22:45.759Z,1011.28
2017-07-19T10:23:54.712Z,1011.25
2017-07-19T10:25:03.670Z,1011.3
2017-07-19T10:26:12.965Z,1011.31
2017-07-19T10:27:21.920Z,1011.3
2017-07-19T10:28:30.881Z,1011.23
2017-07-19T10:29:40.170Z,1011.25
2017-07-19T10:30:49.135Z,1011.22
2017-07-19T10:31:58.101Z,1011.21
2017-07-19T10:33:07.390Z,1011.16
2017-07-19T10:34:16.351Z,1011.19
2017-07-19T10:35:25.649Z,1011.17
2017-07-19T10:36:34.612Z,1011.17
2017-07-19T10:37:43.575Z,1011.17
2017-07-19T10:38:52.870Z,1011.15
2017-07-19T10:40:01.832Z,1011.17
2017-07-19T10:41:10.809Z,1011.23
2017-07-19T10:42:19.792Z,1011.23
2017-07-19T10:43:28.765Z,1011.24
2017-07-19T10:44:37.725Z,1011.24
2017-07-19T10:45:46.693Z,1011.17
2017-07-19T10:46:55.649Z,1011.14
2017-07-19T10:48:04.619Z,1011.07
2017-07-19T10:49:13.585Z,1011.11
2017-07-19T10:50:22.555Z,1011.03
2017-07-19T10:51:31.530Z,1011.08
2017-07-19T10:52:40.491Z,1011.02
2017-07-19T10:53:49.458Z,1011.01
2017-07-19T10:54:58.422Z,1010.97
2017-07-19T10:56:07.388Z,1010.96
2017-07-19T10:57:16.349Z,1010.98
2017-07-19T10:58:25.315Z,1011
2017-07-19T10:59:34.272Z,1010.99
2017-07-19T11:00:43.231Z,1011
2017-07-19T11:01:52.196Z,1010.94
2017-07-19T11:03:01.158Z,1010.96
2017-07-19T11:04:10.122Z,1010.92
2017-07-19T11:05:19.092Z,1010.96
2017-07-19T11:06:28.052Z,1010.91
2017-07-19T11:07:37.017Z,1010.96
2017-07-19T11:08:45.999Z,1010.87
2017-07-19T11:09:54.959Z,1010.88
2017-07-19T11:11:03.922Z,1010.86
2017-07-19T11:12:13.217Z,1010.86
2017-07-19T11:13:22.177Z,1010.83
2017-07-19T11:14:31.134Z,1010.78
2017-07-19T11:15:40.096Z,1010.76
2017-07-19T11:16:49.054Z,1010.8
2017-07-19T11:17:58.348Z,1010.75
2017-07-19T11:19:07.307Z,1010.75
2017-07-19T11:20:16.590Z,1010.79
2017-07-19T11:21:25.590Z,1010.77
2017-07-19T11:22:34.543Z,1010.74
2017-07-19T11:23:43.500Z,1010.67
2017-07-19T11:24:52.471Z,1010.72
2017-07-19T11:26:01.444Z,1010.71
2017-07-19T11:27:10.451Z,1010.67
2017-07-19T11:28:19.407Z,1010.65
2017-07-19T11:29:28.369Z,1010.63
2017-07-19T11:30:37.335Z,1010.65
2017-07-19T11:31:46.313Z,1010.58
2017-07-19T11:32:55.273Z,1010.52
2017-07-19T11:34:04.230Z,1010.55
2017-07-19T11:35:13.196Z,1010.53
2017-07-19T11:36:22.167Z,1010.43
2017-07-19T11:37:31.124Z,1010.5
2017-07-19T11:38:40.109Z,1010.48
2017-07-19T11:39:49.076Z,1010.48
2017-07-19T11:40:58.043Z,1010.5
2017-07-19T11:42:08.016Z,1010.46
2017-07-19T11:43:29.463Z,1010.46
2017-07-19T11:44:47.112Z,1010.46
2017-07-19T11:46:09.126Z,1010.51
2017-07-19T11:47:24.732Z,1010.48
2017-07-19T11:48:34.894Z,1010.5
2017-07-19T11:49:45.629Z,1010.48
2017-07-19T11:50:55.476Z,1010.46
2017-07-19T11:52:04.439Z,1010.42
2017-07-19T11:53:13.412Z,1010.42
2017-07-19T11:54:22.377Z,1010.44
2017-07-19T11:55:31.339Z,1010.42
2017-07-19T11:56:40.618Z,1010.43
2017-07-19T11:57:49.905Z,1010.41
2017-07-19T11:58:58.877Z,1010.41
2017-07-19T12:00:07.864Z,1010.44
2017-07-19T12:01:16.837Z,1010.41
2017-07-19T12:02:25.805Z,1010.38
2017-07-19T12:03:34.772Z,1010.45
2017-07-19T12:04:43.737Z,1010.42
2017-07-19T12:05:52.701Z,1010.43
2017-07-19T12:07:01.664Z,1010.4
2017-07-19T12:08:10.632Z,1010.36
2017-07-19T12:09:19.590Z,1010.41
2017-07-19T12:10:28.547Z,1010.43
2017-07-19T12:11:37.502Z,1010.41
2017-07-19T12:12:46.478Z,1010.45
2017-07-19T12:13:55.452Z,1010.39
2017-07-19T12:15:04.420Z,1010.43
2017-07-19T12:16:13.405Z,1010.36
2017-07-19T12:17:23.009Z,1010.33
2017-07-19T12:18:31.972Z,1010.36
2017-07-19T12:19:40.929Z,1010.29
2017-07-19T12:20:49.898Z,1010.34
2017-07-19T12:21:59.180Z,1010.23
2017-07-19T12:23:08.144Z,1010.29
2017-07-19T12:24:17.103Z,1010.29
2017-07-19T12:25:26.074Z,1010.34
2017-07-19T12:26:35.034Z,1010.36
2017-07-19T12:27:43.997Z,1010.36
2017-07-19T12:28:52.973Z,1010.34
2017-07-19T12:30:01.941Z,1010.28
2017-07-19T12:31:10.905Z,1010.29
2017-07-19T12:32:20.192Z,1010.26
2017-07-19T12:33:29.153Z,1010.28
2017-07-19T12:34:38.113Z,1010.25
2017-07-19T12:35:47.069Z,1010.3
2017-07-19T12:36:56.035Z,1010.31
2017-07-19T12:38:04.999Z,1010.32
2017-07-19T12:39:13.963Z,1010.31
2017-07-19T12:40:23.254Z,1010.32
2017-07-19T12:41:32.217Z,1010.3
2017-07-19T12:42:41.182Z,1010.27
2017-07-19T12:43:50.137Z,1010.27
2017-07-19T12:44:59.100Z,1010.24
2017-07-19T12:46:08.068Z,1010.24
2017-07-19T12:47:17.348Z,1010.22
2017-07-19T12:48:26.309Z,1010.21
2017-07-19T12:49:35.280Z,1010.22
2017-07-19T12:50:44.255Z,1010.2
2017-07-19T12:51:53.221Z,1010.12
2017-07-19T12:53:02.179Z,1010.11
2017-07-19T12:54:11.477Z,1010.07
2017-07-19T12:55:20.763Z,1010.03
2017-07-19T12:56:29.745Z,1009.98
2017-07-19T12:57:38.705Z,1010
2017-07-19T12:58:47.657Z,1010.01
2017-07-19T12:59:56.617Z,1010.06
2017-07-19T13:01:05.583Z,1010.01
2017-07-19T13:02:14.885Z,1010
2017-07-19T13:03:23.848Z,1010.01
2017-07-19T13:04:32.837Z,1010
2017-07-19T13:05:42.143Z,1009.95
2017-07-19T13:06:51.277Z,1009.96
2017-07-19T13:08:00.362Z,1009.95
2017-07-19T13:09:09.338Z,1009.87
2017-07-19T13:10:18.862Z,1009.82
2017-07-19T13:11:27.824Z,1009.79
2017-07-19T13:12:36.782Z,1009.81
2017-07-19T13:13:45.748Z,1009.75
2017-07-19T13:14:54.706Z,1009.72
2017-07-19T13:16:03.665Z,1009.71
2017-07-19T13:17:12.635Z,1009.78
2017-07-19T13:18:21.595Z,1009.77
2017-07-19T13:19:30.877Z,1009.75
2017-07-19T13:20:39.838Z,1009.74
2017-07-19T13:21:48.800Z,1009.71
2017-07-19T13:22:57.761Z,1009.68
2017-07-19T13:24:06.731Z,1009.63
2017-07-19T13:25:15.690Z,1009.56
2017-07-19T13:26:24.653Z,1009.54
2017-07-19T13:27:33.621Z,1009.45
2017-07-19T13:28:42.584Z,1009.43
2017-07-19T13:29:51.556Z,1009.44
2017-07-19T13:31:00.522Z,1009.41
2017-07-19T13:32:09.822Z,1009.4
2017-07-19T13:33:19.114Z,1009.36
2017-07-19T13:34:28.078Z,1009.34
2017-07-19T13:35:37.042Z,1009.3
2017-07-19T13:36:46.008Z,1009.29
2017-07-19T13:37:54.971Z,1009.28
2017-07-19T13:39:03.930Z,1009.33
2017-07-19T13:40:13.158Z,1009.31
2017-07-19T13:41:22.125Z,1009.34
2017-07-19T13:42:31.089Z,1009.3
2017-07-19T13:43:40.059Z,1009.25
2017-07-19T13:44:49.046Z,1009.21
2017-07-19T13:45:58.015Z,1009.24
2017-07-19T13:47:06.977Z,1009.28
2017-07-19T13:48:15.935Z,1009.31
2017-07-19T13:49:25.221Z,1009.29
2017-07-19T13:50:34.184Z,1009.3
2017-07-19T13:51:43.194Z,1009.28
2017-07-19T13:52:52.153Z,1009.29
2017-07-19T13:54:01.116Z,1009.22
2017-07-19T13:55:10.086Z,1009.25
2017-07-19T13:56:19.051Z,1009.23
2017-07-19T13:57:28.022Z,1009.31
2017-07-19T13:58:37.008Z,1009.29